Time;durP1;ratioP1;P1;durP2;ratioP2;P2;SDS_P1;SDS_P2;PMS_P1;PMS_P2;Temp;Humidity;BMP_temperature;BMP_pressure;BME280_temperature;BME280_humidity;BME280_pressure;Samples;Min_cycle;Max_cycle;Signal;HPM_P1;HPM_P2
2024/01/21 00:01:34;;;;;;;23.27;15.37;;;-5.50;87.10;;;-6.92;95.12;99323.28;5132808;27;20542;-73
2024/01/21 00:04:01;;;;;;;24.10;15.17;;;-5.60;86.70;;;-6.93;95.35;99313.72;5120675;27;20501;-75
2024/01/21 00:06:28;;;;;;;20.30;14.93;;;-5.60;86.90;;;-6.91;94.98;99309.22;5123888;27;21080;-74
2024/01/21 00:08:56;;;;;;;21.90;14.90;;;-5.60;87.20;;;-7.00;95.12;99314.94;5143909;27;20522;-75
2024/01/21 00:11:26;;;;;;;21.97;14.00;;;-5.60;86.50;;;-6.99;95.31;99308.75;5109042;27;20536;-75
2024/01/21 00:13:54;;;;;;;22.20;14.57;;;-5.70;86.80;;;-6.88;94.68;99314.38;5130729;27;20981;-74
2024/01/21 00:16:21;;;;;;;23.03;14.20;;;-5.60;87.20;;;-7.27;94.61;99239.09;5128253;27;20450;-73
2024/01/21 00:18:49;;;;;;;20.70;14.90;;;-5.50;86.40;;;-6.95;93.95;99307.69;5107607;27;20450;-72
2024/01/21 00:21:17;;;;;;;24.63;14.63;;;-5.50;85.70;;;-7.08;94.53;99309.16;5141076;27;20453;-71
2024/01/21 00:23:46;;;;;;;20.80;12.90;;;-5.70;85.00;;;-7.17;94.89;99300.81;5119498;27;20545;-75
2024/01/21 00:26:14;;;;;;;23.60;14.63;;;-5.80;85.10;;;-7.16;95.13;99299.03;5137928;27;20453;-75
2024/01/21 00:28:43;;;;;;;17.92;12.38;;;-5.80;85.60;;;-7.26;95.40;99296.84;5118260;27;20462;-73
2024/01/21 00:31:11;;;;;;;24.08;14.50;;;-5.90;86.00;;;-7.06;95.20;99283.66;5144639;27;20195;-73
2024/01/21 00:33:38;;;;;;;18.40;13.10;;;-5.80;87.50;;;-7.02;94.36;99290.50;5145862;27;20648;-75
2024/01/21 00:36:08;;;;;;;22.13;12.43;;;-5.70;87.20;;;-7.02;93.98;99280.00;5139042;27;20941;-73
2024/01/21 00:38:35;;;;;;;20.83;13.47;;;-5.60;86.40;;;-7.03;93.84;99267.78;5120750;27;20453;-75
2024/01/21 00:41:03;;;;;;;28.17;14.73;;;-5.60;85.40;;;-7.01;93.82;99273.81;5145591;27;20659;-70
2024/01/21 00:43:30;;;;;;;20.80;13.77;;;-5.60;84.50;;;-7.02;93.80;99272.13;5121681;27;20453;-74
2024/01/21 00:45:59;;;;;;;22.80;13.57;;;-5.60;84.20;;;-7.03;93.10;99263.38;5140723;27;20456;-71
2024/01/21 00:48:27;;;;;;;23.27;12.40;;;-5.60;83.80;;;-7.06;93.05;99266.16;5104220;27;20456;-74
2024/01/21 00:50:56;;;;;;;23.27;13.53;;;-5.70;83.30;;;-7.12;93.03;99258.56;5147480;27;20513;-73
2024/01/21 00:53:23;;;;;;;22.23;12.27;;;-5.70;83.00;;;-7.14;93.15;99253.38;5125460;27;20485;-75
2024/01/21 00:55:51;;;;;;;18.47;12.10;;;-5.70;83.10;;;-7.14;93.03;99256.00;5148095;27;20446;-73
2024/01/21 00:58:18;;;;;;;21.43;11.83;;;-5.70;82.90;;;-7.64;92.50;99170.78;5134722;27;20449;-71
2024/01/21 01:00:49;;;;;;;22.17;12.75;;;-5.70;83.10;;;-7.15;92.82;99254.31;5139639;27;20514;-73
2024/01/21 01:03:19;;;;;;;21.10;12.43;;;-5.70;82.70;;;-7.12;92.46;99251.53;5131679;27;20213;-69
2024/01/21 01:05:48;;;;;;;17.03;12.10;;;-5.70;82.70;;;-7.31;92.35;99214.75;5123104;27;20454;-70
2024/01/21 01:08:17;;;;;;;18.90;12.70;;;-5.60;82.30;;;-7.16;91.80;99249.09;5120031;27;20806;-74
2024/01/21 01:10:45;;;;;;;20.37;12.53;;;-5.70;81.50;;;-7.15;92.37;99237.66;5139922;27;20460;-72
2024/01/21 01:13:13;;;;;;;19.50;12.63;;;-5.70;81.70;;;-7.21;92.20;99244.06;5148582;27;20480;-73
2024/01/21 01:15:42;;;;;;;20.00;12.13;;;-5.70;81.20;;;-7.16;91.70;99252.59;5133705;27;20966;-73
2024/01/21 01:18:13;;;;;;;22.03;12.27;;;-5.70;81.40;;;-7.19;91.61;99239.63;5142569;27;20521;-73
2024/01/21 01:20:43;;;;;;;17.45;11.15;;;-5.70;81.10;;;-7.23;91.21;99240.66;5133462;27;20533;-73
2024/01/21 01:23:11;;;;;;;17.87;11.50;;;-5.70;80.90;;;-7.20;90.94;99245.78;5117963;27;20191;-73
2024/01/21 01:25:38;;;;;;;18.23;13.00;;;-5.80;80.50;;;-7.17;90.88;99245.66;5118069;27;20464;-72
2024/01/21 01:28:07;;;;;;;21.60;11.90;;;-5.70;80.50;;;-7.19;90.75;99241.38;5135740;27;20453;-71
2024/01/21 01:30:36;;;;;;;17.77;12.10;;;-5.70;80.00;;;-7.22;90.61;99237.09;5137552;27;20540;-75
2024/01/21 01:33:04;;;;;;;19.00;12.03;;;-5.70;79.70;;;-7.27;90.90;99244.38;5128223;27;20472;-71
2024/01/21 01:35:33;;;;;;;21.23;11.27;;;-5.70;79.80;;;-7.21;91.01;99232.72;5129200;27;20462;-72
2024/01/21 01:38:02;;;;;;;14.60;10.90;;;-5.80;79.90;;;-7.77;90.47;99140.78;5139145;27;20457;-73
2024/01/21 01:40:29;;;;;;;15.27;10.40;;;-5.80;79.90;;;-7.29;90.59;99236.53;5143366;27;20573;-73
2024/01/21 01:43:02;;;;;;;17.60;11.03;;;-5.90;79.50;;;-7.26;90.82;99232.94;5137173;27;20499;-69
2024/01/21 01:45:30;;;;;;;17.47;11.43;;;-5.80;80.20;;;-7.24;91.45;99225.00;5135192;27;20438;-72
2024/01/21 01:47:58;;;;;;;15.93;10.13;;;-5.90;80.50;;;-7.22;90.86;99220.50;5142922;27;20457;-73
2024/01/21 01:50:29;;;;;;;15.80;10.40;;;-5.80;80.70;;;-7.37;91.21;99222.94;5129431;27;20508;-72
2024/01/21 01:53:00;;;;;;;17.30;11.40;;;-5.90;79.90;;;-7.45;91.59;99218.03;5118907;27;20573;-72
2024/01/21 01:55:30;;;;;;;14.93;10.70;;;-6.00;80.30;;;-7.52;92.37;99228.91;5150941;27;20187;-72
2024/01/21 01:57:59;;;;;;;19.60;11.70;;;-6.20;80.70;;;-7.47;92.52;99222.53;5103147;27;20453;-72
2024/01/21 02:00:34;;;;;;;17.00;10.87;;;-6.10;82.00;;;-7.67;92.82;99233.94;5134997;27;20449;-72
2024/01/21 02:03:02;;;;;;;21.53;11.13;;;-6.20;81.60;;;-7.74;93.36;99204.50;5119342;27;20949;-71
2024/01/21 02:05:29;;;;;;;20.90;12.00;;;-6.30;82.40;;;-7.54;92.95;99215.84;5119175;27;20500;-71
2024/01/21 02:07:57;;;;;;;16.77;10.53;;;-6.30;83.10;;;-7.57;93.10;99200.22;5115522;27;20204;-72
2024/01/21 02:10:24;;;;;;;18.77;11.40;;;-6.20;83.60;;;-7.38;92.58;99194.09;5124476;27;20928;-71
2024/01/21 02:12:53;;;;;;;17.10;11.00;;;-6.10;84.40;;;-7.45;91.56;99194.41;5138282;27;20485;-72
2024/01/21 02:15:23;;;;;;;14.50;9.60;;;-6.10;83.40;;;-7.33;91.88;99197.38;5139193;27;20925;-71
2024/01/21 02:17:51;;;;;;;15.65;10.20;;;-6.00;83.50;;;-7.20;91.42;99187.13;5118308;27;20491;-71
2024/01/21 02:20:19;;;;;;;16.73;11.67;;;-5.90;83.20;;;-7.75;90.93;99117.94;5117126;27;20199;-69
2024/01/21 02:22:51;;;;;;;19.40;11.77;;;-5.90;81.50;;;-7.72;91.41;99117.81;5117500;27;20454;-72
2024/01/21 02:25:21;;;;;;;17.63;11.77;;;-5.80;81.40;;;-7.31;91.17;99180.63;5138042;27;20873;-74
2024/01/21 02:27:48;;;;;;;20.45;12.18;;;-5.80;81.30;;;-7.32;91.26;99188.59;5141827;27;20444;-71
2024/01/21 02:30:17;;;;;;;21.80;13.00;;;-5.80;80.90;;;-7.31;91.94;99196.38;5107456;27;20248;-71
2024/01/21 02:32:49;;;;;;;16.60;10.80;;;-5.80;81.00;;;-7.40;91.71;99192.41;5140391;27;20480;-71
2024/01/21 02:35:17;;;;;;;20.37;13.73;;;-5.90;80.90;;;-7.46;92.42;99197.09;5112938;27;20449;-71
2024/01/21 02:37:44;;;;;;;16.70;11.85;;;-5.80;81.10;;;-7.37;92.24;99195.81;5120042;28;20454;-73
2024/01/21 02:40:14;;;;;;;18.37;12.40;;;-5.80;81.20;;;-7.38;91.73;99194.97;5138528;27;20714;-72
2024/01/21 02:42:43;;;;;;;15.83;12.27;;;-5.90;80.80;;;-7.35;92.01;99193.97;5140046;27;20450;-74
2024/01/21 02:45:11;;;;;;;17.33;12.53;;;-6.00;81.20;;;-7.37;92.09;99177.44;5123108;27;20826;-70
2024/01/21 02:47:39;;;;;;;18.10;11.90;;;-5.90;81.70;;;-7.44;91.91;99185.59;5140677;27;20533;-72
2024/01/21 02:50:09;;;;;;;17.48;12.73;;;-6.00;81.10;;;-7.43;91.74;99187.31;5114695;28;20450;-72
2024/01/21 02:52:37;;;;;;;19.20;12.10;;;-6.00;81.30;;;-7.40;91.50;99178.44;5140296;27;20208;-71
2024/01/21 02:55:05;;;;;;;20.00;12.23;;;-6.00;81.20;;;-7.41;91.57;99176.75;5122093;27;20191;-74
2024/01/21 02:57:37;;;;;;;18.90;11.73;;;-6.00;81.00;;;-7.36;91.16;99176.50;5121851;27;20453;-73
2024/01/21 03:00:09;;;;;;;19.57;12.30;;;-5.90;80.80;;;-7.46;91.65;99168.22;5142282;27;20472;-71
2024/01/21 03:02:41;;;;;;;22.70;13.03;;;-5.90;80.50;;;-7.98;91.06;99080.53;5128433;27;20956;-75
2024/01/21 03:05:10;;;;;;;16.97;10.87;;;-5.90;80.40;;;-7.41;90.78;99167.06;5121279;27;20468;-72
2024/01/21 03:07:37;;;;;;;16.27;11.27;;;-5.90;80.30;;;-7.41;91.49;99169.69;5114366;27;20475;-72
2024/01/21 03:10:07;;;;;;;22.00;12.43;;;-5.90;80.20;;;-7.47;92.23;99170.00;5108227;27;20449;-71
2024/01/21 03:12:36;;;;;;;18.67;11.60;;;-5.90;80.60;;;-7.90;92.19;99101.16;5125105;27;20471;-72
2024/01/21 03:15:07;;;;;;;16.50;12.73;;;-6.00;80.80;;;-7.48;92.03;99167.44;5114140;28;21245;-72
2024/01/21 03:17:35;;;;;;;15.67;11.73;;;-6.00;80.90;;;-7.54;92.29;99163.31;5139122;27;20479;-73
2024/01/21 03:20:05;;;;;;;18.25;12.23;;;-6.00;81.10;;;-7.44;92.28;99169.84;5122155;27;20462;-70
2024/01/21 03:22:32;;;;;;;20.90;12.00;;;-6.00;81.80;;;-7.48;92.44;99163.06;5140829;27;20188;-71
2024/01/21 03:25:00;;;;;;;18.03;11.93;;;-6.00;81.40;;;-7.47;92.44;99154.25;5091935;27;20449;-72
2024/01/21 03:27:27;;;;;;;22.20;13.00;;;-6.00;81.70;;;-7.41;92.31;99153.94;5140587;27;20475;-70
2024/01/21 03:29:55;;;;;;;20.00;12.17;;;-6.00;81.80;;;-7.37;91.77;99154.66;5138038;27;20566;-74
2024/01/21 03:32:24;;;;;;;15.65;11.07;;;-5.90;81.80;;;-7.42;91.73;99159.28;5134474;27;20919;-76
2024/01/21 03:34:51;;;;;;;21.13;11.77;;;-6.00;81.00;;;-7.47;91.67;99151.63;5120656;27;20224;-70
2024/01/21 03:37:19;;;;;;;15.23;11.00;;;-6.00;81.20;;;-7.43;92.13;99157.56;5110548;27;20457;-74
2024/01/21 03:39:48;;;;;;;18.20;12.13;;;-6.00;81.30;;;-7.43;92.09;99154.94;5119085;27;20886;-73
2024/01/21 03:42:15;;;;;;;25.67;13.40;;;-6.00;81.80;;;-7.34;92.23;99159.75;5119683;27;20444;-74
2024/01/21 03:44:48;;;;;;;18.67;12.23;;;-5.90;82.10;;;-7.31;92.20;99153.50;5142724;27;20445;-72
2024/01/21 03:47:17;;;;;;;19.77;12.90;;;-5.80;81.90;;;-7.41;92.21;99129.47;5137149;27;20466;-73
2024/01/21 03:49:48;;;;;;;18.10;11.90;;;-5.80;81.40;;;-7.27;92.12;99144.56;5126572;27;20215;-72
2024/01/21 03:52:15;;;;;;;22.57;12.93;;;-5.80;81.40;;;-7.23;91.89;99148.72;5104720;27;20916;-74
2024/01/21 03:54:44;;;;;;;17.47;11.50;;;-5.80;81.40;;;-7.30;91.53;99149.97;5129871;27;21017;-70
2024/01/21 03:57:13;;;;;;;17.63;11.07;;;-5.80;81.00;;;-7.26;91.71;99146.25;5122693;27;20448;-72
2024/01/21 03:59:44;;;;;;;15.03;11.40;;;-5.80;81.50;;;-7.20;91.12;99138.09;5141079;27;20282;-73
2024/01/21 04:02:11;;;;;;;19.20;11.93;;;-5.70;81.00;;;-7.12;91.08;99141.19;5125288;27;20437;-74
2024/01/21 04:04:38;;;;;;;19.47;12.33;;;-5.70;80.70;;;-7.21;91.20;99133.72;5142416;27;20493;-74
2024/01/21 04:07:08;;;;;;;19.20;12.90;;;-5.70;80.20;;;-7.15;90.70;99138.69;5118220;27;20476;-69
2024/01/21 04:09:35;;;;;;;17.53;12.53;;;-5.70;80.20;;;-7.18;90.67;99135.38;5115901;27;20623;-72
2024/01/21 04:12:03;;;;;;;17.17;10.43;;;-5.70;79.90;;;-7.21;90.39;99138.16;5124273;27;20470;-70
2024/01/21 04:14:30;;;;;;;22.80;11.90;;;-5.70;79.90;;;-7.24;91.40;99123.38;5118636;27;20473;-70
2024/01/21 04:16:58;;;;;;;18.67;12.88;;;-5.70;80.00;;;-7.31;91.41;99120.19;5141505;27;20453;-73
2024/01/21 04:19:25;;;;;;;19.17;12.13;;;-5.80;79.80;;;-7.34;91.51;99117.72;5117540;27;20924;-74
2024/01/21 04:21:54;;;;;;;20.95;13.55;;;-5.80;80.00;;;-7.35;91.36;99109.91;5125301;27;21031;-86
2024/01/21 04:24:26;;;;;;;17.47;11.03;;;-5.80;80.20;;;-7.31;91.67;99112.31;5122205;27;20203;-73
2024/01/21 04:26:54;;;;;;;17.30;12.10;;;-5.80;80.40;;;-7.32;91.25;99117.66;5143535;27;20945;-73
2024/01/21 04:29:22;;;;;;;20.10;12.43;;;-5.80;80.20;;;-7.32;91.10;99109.78;5147658;27;20547;-74
2024/01/21 04:31:49;;;;;;;16.37;11.33;;;-5.80;80.00;;;-7.35;91.15;99116.03;5127806;27;20470;-72
2024/01/21 04:34:17;;;;;;;16.57;12.27;;;-5.80;79.80;;;-7.40;90.75;99113.63;5123047;27;20472;-72
2024/01/21 04:36:44;;;;;;;22.77;12.07;;;-5.80;79.60;;;-7.30;90.75;99119.28;5114337;27;20453;-71
2024/01/21 04:39:12;;;;;;;18.43;12.73;;;-5.80;79.80;;;-7.35;90.21;99100.28;5100800;27;20602;-72
2024/01/21 04:41:41;;;;;;;16.87;11.37;;;-5.80;79.30;;;-7.43;90.62;99102.41;5102977;27;20453;-72
2024/01/21 04:44:08;;;;;;;15.33;10.83;;;-5.80;79.40;;;-7.31;90.62;99101.00;5141796;27;20473;-73
2024/01/21 04:46:36;;;;;;;18.13;11.27;;;-5.80;79.20;;;-7.37;90.18;99101.28;5125224;27;20462;-74
2024/01/21 04:49:05;;;;;;;13.52;10.43;;;-5.90;79.10;;;-7.36;90.58;99105.59;5141104;27;20453;-70
2024/01/21 04:51:33;;;;;;;17.37;11.93;;;-5.90;79.40;;;-7.32;90.67;99109.78;5103988;27;20582;-72
2024/01/21 04:54:00;;;;;;;18.67;10.97;;;-5.90;79.50;;;-7.75;90.49;99040.06;5136394;27;20499;-74
2024/01/21 04:56:28;;;;;;;18.00;11.33;;;-5.90;79.40;;;-7.34;90.41;99101.97;5135634;27;20453;-73
2024/01/21 04:58:57;;;;;;;20.13;12.52;;;-5.90;79.90;;;-7.36;90.51;99108.22;5102104;27;20455;-74
2024/01/21 05:01:24;;;;;;;17.00;10.97;;;-5.90;79.60;;;-7.41;90.39;99106.69;5136227;27;20633;-74
2024/01/21 05:03:52;;;;;;;24.03;12.43;;;-5.90;79.80;;;-7.37;90.69;99103.91;5142829;27;20463;-72
2024/01/21 05:06:20;;;;;;;15.00;10.27;;;-5.90;79.50;;;-7.41;90.46;99100.59;5105350;27;20980;-73
2024/01/21 05:08:48;;;;;;;13.83;10.90;;;-5.80;79.40;;;-7.38;90.57;99102.19;5140380;27;21018;-73
2024/01/21 05:11:15;;;;;;;17.80;10.63;;;-5.80;79.60;;;-7.33;90.54;99097.59;5130769;27;20465;-72
2024/01/21 05:13:43;;;;;;;14.20;9.63;;;-5.80;79.50;;;-7.23;90.36;99098.81;5121297;27;20481;-72
2024/01/21 05:16:12;;;;;;;18.23;11.07;;;-5.80;79.40;;;-7.69;90.29;99029.25;5117601;27;20645;-73
2024/01/21 05:18:40;;;;;;;20.00;11.43;;;-5.70;79.40;;;-7.17;90.03;99114.28;5133745;27;20556;-69
2024/01/21 05:21:07;;;;;;;15.30;10.87;;;-5.70;79.20;;;-7.16;90.06;99109.88;5129573;27;20485;-70
2024/01/21 05:23:34;;;;;;;18.33;12.00;;;-5.70;79.20;;;-7.20;90.10;99108.31;5138686;27;20513;-72
2024/01/21 05:26:02;;;;;;;18.50;11.47;;;-5.70;79.10;;;-7.73;89.56;99009.34;5114544;27;20482;-72
2024/01/21 05:28:30;;;;;;;15.30;10.40;;;-5.70;79.00;;;-7.20;89.39;99082.94;5106842;27;20449;-72
2024/01/21 05:30:57;;;;;;;14.20;10.50;;;-5.70;78.70;;;-7.16;90.05;99084.47;5100495;27;20544;-73
2024/01/21 05:33:27;;;;;;;13.30;9.40;;;-5.70;78.80;;;-7.16;89.58;99087.09;5119529;27;21021;-72
2024/01/21 05:35:55;;;;;;;16.77;10.37;;;-5.70;78.50;;;-7.13;89.57;99097.44;5141168;27;20517;-72
2024/01/21 05:38:22;;;;;;;14.97;10.47;;;-5.70;78.60;;;-7.20;89.73;99088.19;5138528;27;20463;-73
2024/01/21 05:40:52;;;;;;;11.40;9.10;;;-5.70;78.70;;;-7.19;89.58;99079.38;5092054;27;20639;-73
2024/01/21 05:43:20;;;;;;;17.97;9.53;;;-5.70;78.70;;;-7.18;89.16;99090.72;5116040;27;20499;-72
2024/01/21 05:45:47;;;;;;;17.37;9.67;;;-5.70;78.40;;;-7.11;89.19;99081.63;5119177;27;20446;-73
2024/01/21 05:48:15;;;;;;;16.40;9.10;;;-5.60;78.40;;;-7.09;88.78;99086.78;5099338;27;20486;-74
2024/01/21 05:50:45;;;;;;;13.73;9.20;;;-5.60;78.00;;;-7.12;88.61;99093.06;5102979;27;20462;-73
2024/01/21 05:53:12;;;;;;;13.47;9.20;;;-5.60;77.80;;;-7.18;88.98;99094.19;5140756;27;20473;-72
2024/01/21 05:55:39;;;;;;;14.20;8.87;;;-5.60;77.80;;;-7.54;88.66;99016.31;5125845;27;20468;-75
2024/01/21 05:58:07;;;;;;;12.17;8.20;;;-5.60;77.80;;;-7.09;88.42;99099.91;5142856;27;20520;-72
2024/01/21 06:00:34;;;;;;;14.27;9.17;;;-5.60;77.60;;;-7.02;88.08;99106.56;5102434;27;20460;-71
2024/01/21 06:03:03;;;;;;;16.10;8.95;;;-5.60;77.70;;;-7.07;88.29;99109.41;5120481;27;20528;-72
2024/01/21 06:05:31;;;;;;;12.60;8.60;;;-5.60;77.70;;;-7.07;88.17;99116.44;5137491;27;20204;-72
2024/01/21 06:08:01;;;;;;;13.60;8.30;;;-5.60;77.30;;;-7.04;88.10;99124.19;5142863;27;20464;-70
2024/01/21 06:10:30;;;;;;;13.70;7.87;;;-5.60;77.40;;;-7.02;88.04;99122.34;5135955;27;20489;-74
2024/01/21 06:12:57;;;;;;;14.00;8.20;;;-5.50;77.50;;;-6.99;88.24;99125.63;5122194;27;20464;-73
2024/01/21 06:15:26;;;;;;;12.10;8.00;;;-5.50;77.50;;;-6.98;87.98;99135.22;5137863;27;20678;-68
2024/01/21 06:17:53;;;;;;;13.20;9.27;;;-5.60;77.30;;;-7.01;87.98;99131.91;5106313;28;20554;-72
2024/01/21 06:20:21;;;;;;;13.33;9.23;;;-5.50;77.40;;;-7.00;87.96;99133.63;5137045;27;20453;-70
2024/01/21 06:22:49;;;;;;;10.37;8.10;;;-5.50;77.40;;;-6.99;87.74;99127.44;5121465;27;20461;-74
2024/01/21 06:25:18;;;;;;;12.83;8.27;;;-5.50;77.40;;;-6.95;87.74;99130.75;5120788;27;20485;-73
2024/01/21 06:27:45;;;;;;;11.23;7.50;;;-5.50;77.30;;;-7.01;87.38;99108.28;5141188;27;20452;-73
2024/01/21 06:30:14;;;;;;;14.43;9.00;;;-5.50;77.20;;;-6.93;87.36;99126.28;5120435;27;21040;-73
2024/01/21 06:32:41;;;;;;;10.77;7.60;;;-5.50;77.00;;;-7.00;87.19;99118.69;5119923;27;20872;-73
2024/01/21 06:35:12;;;;;;;9.70;7.10;;;-5.50;76.60;;;-6.98;87.55;99129.13;5138975;27;20478;-73
2024/01/21 06:37:40;;;;;;;11.30;7.97;;;-5.50;76.70;;;-7.00;87.70;99125.72;5124777;27;20548;-72
2024/01/21 06:40:10;;;;;;;12.07;7.80;;;-5.60;76.80;;;-6.87;87.45;99113.69;5124096;27;20454;-71
2024/01/21 06:42:40;;;;;;;12.50;8.93;;;-5.50;77.50;;;-6.78;86.74;99114.13;5134031;27;20501;-70
2024/01/21 06:45:08;;;;;;;14.70;8.30;;;-5.40;77.10;;;-6.75;86.51;99113.97;5120524;27;21003;-72
2024/01/21 06:47:38;;;;;;;13.37;7.90;;;-5.30;76.90;;;-6.73;86.38;99122.66;5139575;27;20457;-73
2024/01/21 06:50:09;;;;;;;10.87;6.23;;;-5.30;76.60;;;-6.63;86.10;99113.34;5121674;27;20503;-71
2024/01/21 06:52:40;;;;;;;11.07;7.80;;;-5.20;76.40;;;-6.59;85.95;99120.16;5116197;27;20444;-72
2024/01/21 06:55:08;;;;;;;5.97;5.33;;;-5.10;76.10;;;-6.56;85.33;99101.59;5128268;27;20473;-73
2024/01/21 06:57:35;;;;;;;11.90;8.47;;;-5.00;75.70;;;-6.52;85.33;99101.41;5123521;27;20456;-73
2024/01/21 07:00:06;;;;;;;11.40;7.80;;;-5.00;75.30;;;-6.44;85.07;99102.72;5141724;27;20806;-71
2024/01/21 07:02:36;;;;;;;9.87;7.80;;;-4.90;75.20;;;-6.30;84.65;99111.66;5123468;27;20534;-72
2024/01/21 07:05:09;;;;;;;12.60;8.13;;;-4.90;75.30;;;-6.33;84.64;99119.72;5142865;27;20561;-73
2024/01/21 07:07:37;;;;;;;12.57;8.70;;;-4.90;75.10;;;-6.26;84.10;99116.69;5129569;27;20461;-73
2024/01/21 07:10:08;;;;;;;12.80;8.97;;;-4.80;75.00;;;-6.18;83.99;99118.91;5125340;27;20506;-73
2024/01/21 07:12:37;;;;;;;12.00;7.50;;;-4.80;74.90;;;-6.16;83.81;99118.81;5145904;27;20445;-72
2024/01/21 07:15:07;;;;;;;10.67;7.93;;;-4.70;74.90;;;-6.19;83.56;99116.34;5120474;27;20514;-71
2024/01/21 07:17:35;;;;;;;10.67;8.50;;;-4.70;74.50;;;-6.05;84.03;99113.81;5144522;27;20559;-71
2024/01/21 07:20:05;;;;;;;10.67;7.60;;;-4.60;75.20;;;-6.08;83.52;99114.00;5120590;27;20461;-69
2024/01/21 07:22:32;;;;;;;11.97;7.57;;;-4.60;74.60;;;-5.88;84.55;99106.75;5127118;27;20457;-70
2024/01/21 07:25:01;;;;;;;10.90;8.33;;;-4.40;75.40;;;-5.88;83.10;99114.66;5122922;27;20449;-70
2024/01/21 07:27:28;;;;;;;12.00;8.77;;;-4.40;74.40;;;-5.69;83.85;99103.97;5125598;27;20502;-68
2024/01/21 07:29:55;;;;;;;10.10;8.10;;;-4.30;75.10;;;-5.38;82.51;99111.91;5129299;27;20455;-69
2024/01/21 07:32:24;;;;;;;8.33;6.50;;;-3.90;75.00;;;-5.49;81.29;99110.75;5124427;27;21348;-69
2024/01/21 07:34:51;;;;;;;11.27;8.80;;;-3.90;73.40;;;-5.59;81.14;99109.56;5146238;27;20590;-70
2024/01/21 07:37:19;;;;;;;9.30;7.60;;;-4.00;73.00;;;-5.18;82.57;99114.28;5140169;27;20453;-69
2024/01/21 07:39:49;;;;;;;14.50;8.90;;;-3.80;74.10;;;-5.28;81.89;99106.03;5126727;27;20453;-70
2024/01/21 07:42:17;;;;;;;11.73;8.80;;;-3.80;73.50;;;-5.43;80.97;99112.19;5142338;27;20445;-69
2024/01/21 07:44:44;;;;;;;11.00;7.83;;;-3.90;72.50;;;-4.03;83.94;99109.25;5128514;27;20445;-70
2024/01/21 07:47:12;;;;;;;11.00;8.77;;;-3.20;76.70;;;-4.49;78.34;99113.78;5111002;27;20449;-70
2024/01/21 07:49:40;;;;;;;13.17;8.40;;;-3.10;72.90;;;-4.77;78.04;99123.31;5127333;27;20446;-70
2024/01/21 07:52:09;;;;;;;10.50;7.43;;;-3.30;71.30;;;-4.98;78.35;99130.69;5140980;27;20462;-69
2024/01/21 07:54:37;;;;;;;9.00;7.10;;;-3.40;71.10;;;-5.07;78.47;99126.81;5151146;27;23398;-70
2024/01/21 07:57:06;;;;;;;12.20;8.83;;;-3.50;71.10;;;-5.15;80.27;99135.16;5143821;27;20457;-68
2024/01/21 07:59:35;;;;;;;12.10;8.13;;;-3.60;71.70;;;-5.05;79.89;99124.94;5140168;27;20462;-70
2024/01/21 08:02:02;;;;;;;14.40;9.50;;;-3.60;71.90;;;-4.79;79.25;99116.44;5121266;27;20534;-73
2024/01/21 08:04:30;;;;;;;13.67;8.27;;;-3.50;72.00;;;-4.95;79.13;99119.97;5121453;27;20820;-70
2024/01/21 08:06:59;;;;;;;14.90;8.13;;;-3.40;71.60;;;-4.74;79.08;99117.03;5143924;27;21150;-70
2024/01/21 08:09:29;;;;;;;12.77;7.60;;;-3.40;71.70;;;-4.92;78.37;99103.13;5112918;27;20479;-70
2024/01/21 08:11:57;;;;;;;8.23;7.17;;;-3.40;71.20;;;-4.86;78.79;99108.03;5130824;27;20528;-70
2024/01/21 08:14:24;;;;;;;12.27;8.30;;;-3.40;71.10;;;-4.84;79.16;99107.03;5124249;27;20538;-68
2024/01/21 08:16:51;;;;;;;11.77;7.93;;;-3.40;71.40;;;-4.77;78.29;99106.69;5126167;27;20811;-71
2024/01/21 08:19:20;;;;;;;11.53;8.17;;;-3.30;71.30;;;-4.70;78.55;99118.53;5135584;27;20453;-69
2024/01/21 08:21:47;;;;;;;13.97;8.07;;;-3.30;71.20;;;-4.61;78.09;99102.19;5120770;27;20474;-70
2024/01/21 08:24:16;;;;;;;13.10;8.37;;;-3.20;71.20;;;-4.78;78.05;99102.31;5140444;27;20961;-70
2024/01/21 08:26:43;;;;;;;11.17;7.87;;;-3.30;70.60;;;-4.82;78.06;99048.94;5117146;27;20453;-71
2024/01/21 08:29:10;;;;;;;12.73;7.90;;;-3.10;71.00;;;-4.49;77.44;99105.84;5144783;27;20443;-70
2024/01/21 08:31:43;;;;;;;13.43;8.87;;;-3.00;70.80;;;-4.32;77.10;99101.34;5148386;27;21119;-71
2024/01/21 08:34:11;;;;;;;11.13;7.93;;;-2.90;70.70;;;-4.22;76.82;99091.06;5134791;27;20564;-70
2024/01/21 08:36:39;;;;;;;9.73;7.47;;;-2.80;70.50;;;-4.16;76.80;99086.25;5141602;27;20496;-69
2024/01/21 08:39:09;;;;;;;12.23;8.27;;;-2.70;70.20;;;-4.13;76.24;99088.69;5127331;27;20474;-70
2024/01/21 08:41:38;;;;;;;16.33;8.53;;;-2.70;70.30;;;-3.93;76.54;99089.25;5125414;27;20457;-70
2024/01/21 08:44:06;;;;;;;11.27;8.40;;;-2.60;70.30;;;-3.64;75.63;99085.69;5141267;27;20445;-69
2024/01/21 08:46:33;;;;;;;9.63;7.50;;;-2.40;70.10;;;-3.72;74.05;99083.53;5136556;27;20444;-70
2024/01/21 08:49:01;;;;;;;12.20;8.03;;;-2.30;69.40;;;-3.60;74.96;99088.03;5133116;27;20461;-70
2024/01/21 08:51:29;;;;;;;11.63;8.17;;;-2.20;69.50;;;-3.63;74.89;99098.81;5134863;27;20459;-69
2024/01/21 08:53:57;;;;;;;10.60;8.43;;;-2.20;69.50;;;-3.44;74.37;99073.84;5143912;27;21112;-69
2024/01/21 08:56:25;;;;;;;12.20;9.53;;;-2.10;69.30;;;-3.29;73.11;99106.34;5114517;27;21060;-70
2024/01/21 08:58:59;;;;;;;11.40;9.60;;;-2.00;68.80;;;-3.14;72.88;99110.63;5141988;27;20455;-70
2024/01/21 09:01:26;;;;;;;10.27;8.70;;;-1.80;68.70;;;-2.94;72.74;99132.28;5121967;27;20522;-70
2024/01/21 09:03:54;;;;;;;12.43;9.03;;;-1.70;68.50;;;-2.72;71.11;99144.91;5133202;27;20461;-70
2024/01/21 09:06:22;;;;;;;9.23;7.47;;;-1.40;68.10;;;-2.69;70.97;99124.50;5124266;27;20446;-74
2024/01/21 09:08:54;;;;;;;9.97;8.80;;;-1.30;67.60;;;-2.60;70.75;99122.06;5142484;27;20454;-71
2024/01/21 09:11:25;;;;;;;11.40;8.87;;;-1.30;67.20;;;-2.56;70.26;99115.59;5117513;27;20594;-76
2024/01/21 09:13:54;;;;;;;9.50;8.50;;;-1.20;66.80;;;-2.32;70.92;99112.22;5141816;27;20930;-73
2024/01/21 09:16:23;;;;;;;11.80;10.47;;;-1.10;67.30;;;-2.36;70.10;99116.03;5117892;27;20455;-73
2024/01/21 09:19:02;;;;;;;12.03;9.13;;;-1.00;66.50;;;-2.38;69.24;99123.22;5143925;27;20476;-72
2024/01/21 09:21:34;;;;;;;11.37;8.77;;;-0.90;65.90;;;-2.34;69.58;99114.16;5133212;27;20445;-70
2024/01/21 09:24:04;;;;;;;11.87;8.57;;;-1.00;65.90;;;-2.10;68.91;99125.78;5140931;27;20443;-72
2024/01/21 09:26:33;;;;;;;12.63;9.13;;;-0.80;65.70;;;-2.08;68.97;99116.75;5121596;27;20441;-70
2024/01/21 09:29:03;;;;;;;10.73;8.83;;;-0.70;65.60;;;-2.13;68.88;99108.28;5118483;27;20450;-71
2024/01/21 09:31:30;;;;;;;11.80;8.80;;;-0.70;65.30;;;-2.25;69.45;99114.44;5137189;27;20450;-71
2024/01/21 09:33:58;;;;;;;11.77;9.80;;;-0.90;65.30;;;-2.11;69.24;99124.91;5143164;27;20947;-71
2024/01/21 09:36:25;;;;;;;10.70;9.10;;;-0.80;65.60;;;-1.97;68.95;99126.63;5139801;27;20454;-68
2024/01/21 09:38:53;;;;;;;12.60;9.43;;;-0.70;65.70;;;-2.13;68.78;99106.47;5144303;27;20509;-71
2024/01/21 09:41:31;;;;;;;11.90;9.30;;;-0.70;65.30;;;-1.93;69.11;99113.97;5141218;27;20453;-71
2024/01/21 09:43:59;;;;;;;12.33;10.10;;;-0.70;65.40;;;-1.89;68.02;99129.56;5120549;27;20450;-73
2024/01/21 09:46:29;;;;;;;14.40;10.13;;;-0.60;64.90;;;-1.87;67.98;99142.72;5144665;27;20451;-70
2024/01/21 09:49:00;;;;;;;10.57;9.00;;;-0.50;64.60;;;-1.53;67.51;99145.59;5121413;27;20449;-74
2024/01/21 09:51:30;;;;;;;13.37;10.40;;;-0.30;64.80;;;-1.32;66.21;99153.81;5134755;27;21176;-70
2024/01/21 09:54:00;;;;;;;11.55;9.50;;;-0.10;64.10;;;-1.44;67.64;99176.75;5100691;27;20459;-72
2024/01/21 09:56:29;;;;;;;16.93;10.73;;;0.00;64.20;;;-1.12;65.75;99174.53;5107393;27;20481;-72
2024/01/21 09:59:01;;;;;;;11.83;10.40;;;0.20;63.60;;;-1.05;66.37;99165.16;5141085;27;21056;-75
2024/01/21 10:01:32;;;;;;;11.40;9.23;;;0.10;64.10;;;-0.94;65.24;99157.25;5110755;27;20476;-73
2024/01/21 10:04:02;;;;;;;13.13;10.40;;;0.30;63.60;;;-1.00;65.04;99163.00;5103198;27;21111;-74
2024/01/21 10:06:30;;;;;;;14.10;11.70;;;0.40;63.00;;;-1.03;65.38;99161.44;5135231;27;20547;-73
2024/01/21 10:09:14;;;;;;;16.33;11.37;;;0.40;62.90;;;-0.88;64.69;99151.47;5140625;27;20843;-73
2024/01/21 10:11:42;;;;;;;12.40;10.97;;;0.40;62.60;;;-0.98;65.39;99160.25;5135553;27;20456;-74
2024/01/21 10:14:15;;;;;;;12.40;10.57;;;0.50;62.60;;;-0.72;64.92;99163.59;5116058;27;20511;-84
2024/01/21 10:16:44;;;;;;;14.73;10.50;;;0.60;62.50;;;-0.67;64.29;99166.78;5137929;27;20459;-71